sensor_id;sensor_type;location;lat;lon;timestamp;P1;durP1;ratioP1;P2;durP2;ratioP2
9208;SDS011;4639;48.862;9.188;2022-11-20T00:01:06;77.88;;;19.23;;
9208;SDS011;4639;48.862;9.188;2022-11-20T00:03:37;47.10;;;17.70;;
9208;SDS011;4639;48.862;9.188;2022-11-20T00:06:03;36.85;;;15.68;;
9208;SDS011;4639;48.862;9.188;2022-11-20T00:08:30;44.45;;;18.60;;
9208;SDS011;4639;48.862;9.188;2022-11-20T00:10:56;26.77;;;16.35;;
9208;SDS011;4639;48.862;9.188;2022-11-20T00:13:22;40.53;;;16.50;;
9208;SDS011;4639;48.862;9.188;2022-11-20T00:15:47;29.85;;;17.70;;
9208;SDS011;4639;48.862;9.188;2022-11-20T00:18:13;29.60;;;16.25;;
9208;SDS011;4639;48.862;9.188;2022-11-20T00:20:39;41.00;;;18.83;;
9208;SDS011;4639;48.862;9.188;2022-11-20T00:23:04;28.92;;;17.90;;
9208;SDS011;4639;48.862;9.188;2022-11-20T00:25:33;26.65;;;16.30;;
9208;SDS011;4639;48.862;9.188;2022-11-20T00:27:59;31.40;;;17.75;;
9208;SDS011;4639;48.862;9.188;2022-11-20T00:30:24;28.75;;;17.27;;
9208;SDS011;4639;48.862;9.188;2022-11-20T00:32:50;35.70;;;18.42;;
9208;SDS011;4639;48.862;9.188;2022-11-20T00:35:15;78.18;;;21.48;;
9208;SDS011;4639;48.862;9.188;2022-11-20T00:37:41;43.10;;;21.38;;
9208;SDS011;4639;48.862;9.188;2022-11-20T00:40:07;51.90;;;20.27;;
9208;SDS011;4639;48.862;9.188;2022-11-20T00:42:33;63.40;;;20.63;;
9208;SDS011;4639;48.862;9.188;2022-11-20T00:44:58;44.30;;;18.83;;
9208;SDS011;4639;48.862;9.188;2022-11-20T00:47:24;44.60;;;20.25;;
9208;SDS011;4639;48.862;9.188;2022-11-20T00:49:49;83.43;;;23.27;;
9208;SDS011;4639;48.862;9.188;2022-11-20T00:52:15;58.95;;;22.35;;
9208;SDS011;4639;48.862;9.188;2022-11-20T00:54:41;41.45;;;18.70;;
9208;SDS011;4639;48.862;9.188;2022-11-20T00:57:06;34.08;;;18.40;;
9208;SDS011;4639;48.862;9.188;2022-11-20T00:59:32;35.28;;;19.48;;
9208;SDS011;4639;48.862;9.188;2022-11-20T01:01:57;40.10;;;20.08;;
9208;SDS011;4639;48.862;9.188;2022-11-20T01:04:23;29.17;;;18.15;;
9208;SDS011;4639;48.862;9.188;2022-11-20T01:06:48;29.02;;;18.15;;
9208;SDS011;4639;48.862;9.188;2022-11-20T01:09:14;29.52;;;18.33;;
9208;SDS011;4639;48.862;9.188;2022-11-20T01:11:41;38.92;;;19.52;;
9208;SDS011;4639;48.862;9.188;2022-11-20T01:14:10;33.58;;;18.88;;
9208;SDS011;4639;48.862;9.188;2022-11-20T01:16:41;29.73;;;18.40;;
9208;SDS011;4639;48.862;9.188;2022-11-20T01:19:12;32.25;;;18.73;;
9208;SDS011;4639;48.862;9.188;2022-11-20T01:21:40;36.40;;;20.08;;
9208;SDS011;4639;48.862;9.188;2022-11-20T01:24:07;25.55;;;17.95;;
9208;SDS011;4639;48.862;9.188;2022-11-20T01:26:36;35.25;;;20.02;;
9208;SDS011;4639;48.862;9.188;2022-11-20T01:29:03;32.05;;;19.95;;
9208;SDS011;4639;48.862;9.188;2022-11-20T01:31:31;33.17;;;19.23;;
9208;SDS011;4639;48.862;9.188;2022-11-20T01:34:03;30.77;;;18.90;;
9208;SDS011;4639;48.862;9.188;2022-11-20T01:36:31;43.05;;;21.42;;
9208;SDS011;4639;48.862;9.188;2022-11-20T01:38:59;66.00;;;26.50;;
9208;SDS011;4639;48.862;9.188;2022-11-20T01:41:29;41.13;;;20.40;;
9208;SDS011;4639;48.862;9.188;2022-11-20T01:44:15;41.03;;;21.20;;
9208;SDS011;4639;48.862;9.188;2022-11-20T01:47:02;63.00;;;21.23;;
9208;SDS011;4639;48.862;9.188;2022-11-20T01:52:16;71.22;;;20.58;;
9208;SDS011;4639;48.862;9.188;2022-11-20T01:54:48;40.97;;;18.77;;
9208;SDS011;4639;48.862;9.188;2022-11-20T01:57:19;29.27;;;17.30;;
9208;SDS011;4639;48.862;9.188;2022-11-20T01:59:49;33.85;;;17.17;;
9208;SDS011;4639;48.862;9.188;2022-11-20T02:02:21;30.77;;;17.05;;
9208;SDS011;4639;48.862;9.188;2022-11-20T02:04:48;21.75;;;15.07;;
9208;SDS011;4639;48.862;9.188;2022-11-20T02:07:16;20.23;;;15.18;;
9208;SDS011;4639;48.862;9.188;2022-11-20T02:09:42;22.98;;;14.38;;
9208;SDS011;4639;48.862;9.188;2022-11-20T02:12:08;22.15;;;15.40;;
9208;SDS011;4639;48.862;9.188;2022-11-20T02:14:53;21.27;;;15.60;;
9208;SDS011;4639;48.862;9.188;2022-11-20T02:17:19;20.17;;;14.75;;
9208;SDS011;4639;48.862;9.188;2022-11-20T02:19:45;21.88;;;15.63;;
9208;SDS011;4639;48.862;9.188;2022-11-20T02:22:22;25.00;;;16.75;;
9208;SDS011;4639;48.862;9.188;2022-11-20T02:24:55;20.63;;;15.32;;
9208;SDS011;4639;48.862;9.188;2022-11-20T02:27:23;19.48;;;14.98;;
9208;SDS011;4639;48.862;9.188;2022-11-20T02:29:54;19.48;;;14.48;;
9208;SDS011;4639;48.862;9.188;2022-11-20T02:32:24;16.83;;;13.95;;
9208;SDS011;4639;48.862;9.188;2022-11-20T02:34:55;15.95;;;13.30;;
9208;SDS011;4639;48.862;9.188;2022-11-20T02:37:22;16.55;;;12.90;;
9208;SDS011;4639;48.862;9.188;2022-11-20T02:39:50;18.67;;;12.93;;
9208;SDS011;4639;48.862;9.188;2022-11-20T02:42:17;14.93;;;12.02;;
9208;SDS011;4639;48.862;9.188;2022-11-20T02:44:43;12.55;;;10.43;;
9208;SDS011;4639;48.862;9.188;2022-11-20T02:47:08;14.00;;;10.82;;
9208;SDS011;4639;48.862;9.188;2022-11-20T02:49:34;13.95;;;9.57;;
9208;SDS011;4639;48.862;9.188;2022-11-20T02:52:00;14.25;;;10.30;;
9208;SDS011;4639;48.862;9.188;2022-11-20T02:54:26;10.88;;;9.02;;
9208;SDS011;4639;48.862;9.188;2022-11-20T02:56:52;10.57;;;8.00;;
9208;SDS011;4639;48.862;9.188;2022-11-20T02:59:17;10.70;;;8.02;;
9208;SDS011;4639;48.862;9.188;2022-11-20T03:01:43;9.27;;;7.10;;
9208;SDS011;4639;48.862;9.188;2022-11-20T03:04:09;7.82;;;6.75;;
9208;SDS011;4639;48.862;9.188;2022-11-20T03:06:34;7.43;;;6.47;;
9208;SDS011;4639;48.862;9.188;2022-11-20T03:09:00;6.20;;;5.53;;
9208;SDS011;4639;48.862;9.188;2022-11-20T03:11:25;7.65;;;5.47;;
9208;SDS011;4639;48.862;9.188;2022-11-20T03:13:51;7.43;;;4.78;;
9208;SDS011;4639;48.862;9.188;2022-11-20T03:16:18;5.60;;;5.00;;
9208;SDS011;4639;48.862;9.188;2022-11-20T03:18:45;6.43;;;5.13;;
9208;SDS011;4639;48.862;9.188;2022-11-20T03:21:12;8.00;;;4.60;;
9208;SDS011;4639;48.862;9.188;2022-11-20T03:23:38;5.38;;;4.32;;
9208;SDS011;4639;48.862;9.188;2022-11-20T03:26:11;4.40;;;4.00;;
9208;SDS011;4639;48.862;9.188;2022-11-20T03:28:37;4.90;;;4.20;;
9208;SDS011;4639;48.862;9.188;2022-11-20T03:31:06;5.80;;;4.32;;
9208;SDS011;4639;48.862;9.188;2022-11-20T03:33:33;6.18;;;4.05;;
9208;SDS011;4639;48.862;9.188;2022-11-20T03:36:03;4.20;;;3.90;;
9208;SDS011;4639;48.862;9.188;2022-11-20T03:38:30;5.88;;;4.43;;
9208;SDS011;4639;48.862;9.188;2022-11-20T03:41:00;4.97;;;4.03;;
9208;SDS011;4639;48.862;9.188;2022-11-20T03:43:27;4.85;;;4.00;;
9208;SDS011;4639;48.862;9.188;2022-11-20T03:45:53;4.00;;;3.45;;
9208;SDS011;4639;48.862;9.188;2022-11-20T03:48:18;3.40;;;3.10;;
9208;SDS011;4639;48.862;9.188;2022-11-20T03:50:44;5.82;;;3.28;;
9208;SDS011;4639;48.862;9.188;2022-11-20T03:53:12;4.30;;;3.40;;
9208;SDS011;4639;48.862;9.188;2022-11-20T03:55:38;4.25;;;3.45;;
9208;SDS011;4639;48.862;9.188;2022-11-20T03:58:04;5.57;;;3.67;;
9208;SDS011;4639;48.862;9.188;2022-11-20T04:00:29;4.82;;;3.60;;
9208;SDS011;4639;48.862;9.188;2022-11-20T04:02:57;5.40;;;3.70;;
9208;SDS011;4639;48.862;9.188;2022-11-20T04:05:24;3.78;;;3.38;;
9208;SDS011;4639;48.862;9.188;2022-11-20T04:07:49;3.67;;;3.10;;
9208;SDS011;4639;48.862;9.188;2022-11-20T04:10:15;4.45;;;3.58;;
9208;SDS011;4639;48.862;9.188;2022-11-20T04:12:40;5.97;;;3.28;;
9208;SDS011;4639;48.862;9.188;2022-11-20T04:15:06;9.68;;;4.13;;
9208;SDS011;4639;48.862;9.188;2022-11-20T04:17:32;5.00;;;3.92;;
9208;SDS011;4639;48.862;9.188;2022-11-20T04:19:57;6.95;;;4.00;;
9208;SDS011;4639;48.862;9.188;2022-11-20T04:22:23;4.97;;;3.83;;
9208;SDS011;4639;48.862;9.188;2022-11-20T04:24:48;3.90;;;3.47;;
9208;SDS011;4639;48.862;9.188;2022-11-20T04:27:14;4.20;;;3.65;;
9208;SDS011;4639;48.862;9.188;2022-11-20T04:29:39;5.20;;;3.92;;
9208;SDS011;4639;48.862;9.188;2022-11-20T04:32:05;5.95;;;3.83;;
9208;SDS011;4639;48.862;9.188;2022-11-20T04:34:31;4.30;;;3.80;;
9208;SDS011;4639;48.862;9.188;2022-11-20T04:36:56;4.30;;;3.83;;
9208;SDS011;4639;48.862;9.188;2022-11-20T04:39:22;4.53;;;3.83;;
9208;SDS011;4639;48.862;9.188;2022-11-20T04:41:48;4.90;;;4.20;;
9208;SDS011;4639;48.862;9.188;2022-11-20T04:44:33;6.13;;;3.97;;
9208;SDS011;4639;48.862;9.188;2022-11-20T04:46:59;4.75;;;3.88;;
9208;SDS011;4639;48.862;9.188;2022-11-20T04:49:24;7.43;;;4.22;;
9208;SDS011;4639;48.862;9.188;2022-11-20T04:51:52;4.25;;;3.85;;
9208;SDS011;4639;48.862;9.188;2022-11-20T04:54:18;4.88;;;4.18;;
9208;SDS011;4639;48.862;9.188;2022-11-20T04:56:46;4.80;;;4.30;;
9208;SDS011;4639;48.862;9.188;2022-11-20T04:59:12;4.55;;;4.13;;
9208;SDS011;4639;48.862;9.188;2022-11-20T05:01:38;4.35;;;3.95;;
9208;SDS011;4639;48.862;9.188;2022-11-20T05:04:04;3.83;;;3.40;;
9208;SDS011;4639;48.862;9.188;2022-11-20T05:06:30;4.90;;;3.50;;
9208;SDS011;4639;48.862;9.188;2022-11-20T05:08:56;6.05;;;3.72;;
9208;SDS011;4639;48.862;9.188;2022-11-20T05:11:23;5.65;;;4.35;;
9208;SDS011;4639;48.862;9.188;2022-11-20T05:13:49;6.30;;;4.10;;
9208;SDS011;4639;48.862;9.188;2022-11-20T05:16:17;5.25;;;4.35;;
9208;SDS011;4639;48.862;9.188;2022-11-20T05:18:44;4.10;;;3.65;;
9208;SDS011;4639;48.862;9.188;2022-11-20T05:21:10;3.95;;;3.60;;
9208;SDS011;4639;48.862;9.188;2022-11-20T05:23:37;5.63;;;3.88;;
9208;SDS011;4639;48.862;9.188;2022-11-20T05:26:03;5.90;;;4.28;;
9208;SDS011;4639;48.862;9.188;2022-11-20T05:28:30;5.32;;;4.10;;
9208;SDS011;4639;48.862;9.188;2022-11-20T05:31:03;6.35;;;4.00;;
9208;SDS011;4639;48.862;9.188;2022-11-20T05:33:33;6.25;;;4.18;;
9208;SDS011;4639;48.862;9.188;2022-11-20T05:35:59;5.68;;;3.95;;
9208;SDS011;4639;48.862;9.188;2022-11-20T05:38:25;6.68;;;4.05;;
9208;SDS011;4639;48.862;9.188;2022-11-20T05:40:51;4.82;;;3.83;;
9208;SDS011;4639;48.862;9.188;2022-11-20T05:43:16;4.57;;;4.10;;
9208;SDS011;4639;48.862;9.188;2022-11-20T05:45:42;7.20;;;3.95;;
9208;SDS011;4639;48.862;9.188;2022-11-20T05:48:07;4.53;;;4.13;;
9208;SDS011;4639;48.862;9.188;2022-11-20T05:50:33;4.47;;;3.85;;
9208;SDS011;4639;48.862;9.188;2022-11-20T05:52:59;7.50;;;4.45;;
9208;SDS011;4639;48.862;9.188;2022-11-20T05:55:25;5.60;;;4.40;;
9208;SDS011;4639;48.862;9.188;2022-11-20T05:57:54;6.10;;;4.40;;
9208;SDS011;4639;48.862;9.188;2022-11-20T06:00:20;4.43;;;3.90;;
9208;SDS011;4639;48.862;9.188;2022-11-20T06:02:46;5.50;;;3.80;;
9208;SDS011;4639;48.862;9.188;2022-11-20T06:05:12;4.22;;;3.83;;
9208;SDS011;4639;48.862;9.188;2022-11-20T06:07:38;4.63;;;3.70;;
9208;SDS011;4639;48.862;9.188;2022-11-20T06:10:03;6.22;;;3.60;;
9208;SDS011;4639;48.862;9.188;2022-11-20T06:12:30;4.88;;;4.07;;
9208;SDS011;4639;48.862;9.188;2022-11-20T06:14:57;4.47;;;3.90;;
9208;SDS011;4639;48.862;9.188;2022-11-20T06:17:23;6.03;;;4.22;;
9208;SDS011;4639;48.862;9.188;2022-11-20T06:19:48;4.38;;;3.75;;
9208;SDS011;4639;48.862;9.188;2022-11-20T06:22:14;3.97;;;3.38;;
9208;SDS011;4639;48.862;9.188;2022-11-20T06:24:39;4.30;;;3.58;;
9208;SDS011;4639;48.862;9.188;2022-11-20T06:27:05;5.00;;;4.15;;
9208;SDS011;4639;48.862;9.188;2022-11-20T06:29:31;5.05;;;3.65;;
9208;SDS011;4639;48.862;9.188;2022-11-20T06:31:56;7.70;;;3.97;;
9208;SDS011;4639;48.862;9.188;2022-11-20T06:34:22;6.43;;;3.75;;
9208;SDS011;4639;48.862;9.188;2022-11-20T06:36:47;4.25;;;3.65;;
9208;SDS011;4639;48.862;9.188;2022-11-20T06:39:13;3.85;;;3.28;;
9208;SDS011;4639;48.862;9.188;2022-11-20T06:41:38;4.55;;;3.33;;
9208;SDS011;4639;48.862;9.188;2022-11-20T06:44:04;5.13;;;3.80;;
9208;SDS011;4639;48.862;9.188;2022-11-20T06:46:30;4.57;;;3.42;;
9208;SDS011;4639;48.862;9.188;2022-11-20T06:48:56;4.57;;;3.60;;
9208;SDS011;4639;48.862;9.188;2022-11-20T06:51:23;3.92;;;3.55;;
9208;SDS011;4639;48.862;9.188;2022-11-20T06:53:48;4.10;;;3.70;;
9208;SDS011;4639;48.862;9.188;2022-11-20T06:56:14;4.53;;;3.78;;
9208;SDS011;4639;48.862;9.188;2022-11-20T06:58:39;4.10;;;3.70;;
9208;SDS011;4639;48.862;9.188;2022-11-20T07:01:06;4.68;;;2.95;;
9208;SDS011;4639;48.862;9.188;2022-11-20T07:03:33;4.43;;;3.65;;
9208;SDS011;4639;48.862;9.188;2022-11-20T07:05:59;3.47;;;2.35;;
9208;SDS011;4639;48.862;9.188;2022-11-20T07:08:26;2.92;;;2.25;;
9208;SDS011;4639;48.862;9.188;2022-11-20T07:10:51;2.38;;;2.08;;
9208;SDS011;4639;48.862;9.188;2022-11-20T07:13:17;2.58;;;2.05;;
9208;SDS011;4639;48.862;9.188;2022-11-20T07:15:43;3.58;;;1.95;;
9208;SDS011;4639;48.862;9.188;2022-11-20T07:18:08;2.60;;;1.95;;
9208;SDS011;4639;48.862;9.188;2022-11-20T07:20:34;2.15;;;1.73;;
9208;SDS011;4639;48.862;9.188;2022-11-20T07:22:59;2.03;;;1.70;;
9208;SDS011;4639;48.862;9.188;2022-11-20T07:25:25;3.17;;;1.83;;
9208;SDS011;4639;48.862;9.188;2022-11-20T07:27:52;3.83;;;1.88;;
9208;SDS011;4639;48.862;9.188;2022-11-20T07:30:18;2.00;;;1.83;;
9208;SDS011;4639;48.862;9.188;2022-11-20T07:32:47;3.78;;;2.00;;
9208;SDS011;4639;48.862;9.188;2022-11-20T07:35:15;4.75;;;2.15;;
9208;SDS011;4639;48.862;9.188;2022-11-20T07:37:41;2.88;;;2.05;;
9208;SDS011;4639;48.862;9.188;2022-11-20T07:40:06;2.33;;;2.10;;
9208;SDS011;4639;48.862;9.188;2022-11-20T07:42:32;2.30;;;2.10;;
9208;SDS011;4639;48.862;9.188;2022-11-20T07:44:58;2.72;;;2.38;;
9208;SDS011;4639;48.862;9.188;2022-11-20T07:47:23;1.92;;;1.77;;
9208;SDS011;4639;48.862;9.188;2022-11-20T07:49:49;3.53;;;2.20;;
9208;SDS011;4639;48.862;9.188;2022-11-20T07:52:15;2.10;;;1.73;;
9208;SDS011;4639;48.862;9.188;2022-11-20T07:54:41;3.15;;;1.90;;
9208;SDS011;4639;48.862;9.188;2022-11-20T07:57:06;2.05;;;1.88;;
9208;SDS011;4639;48.862;9.188;2022-11-20T07:59:32;2.53;;;2.28;;
9208;SDS011;4639;48.862;9.188;2022-11-20T08:01:57;2.90;;;2.05;;
9208;SDS011;4639;48.862;9.188;2022-11-20T08:04:23;4.25;;;2.30;;
9208;SDS011;4639;48.862;9.188;2022-11-20T08:06:48;3.17;;;2.22;;
9208;SDS011;4639;48.862;9.188;2022-11-20T08:09:14;3.30;;;2.10;;
9208;SDS011;4639;48.862;9.188;2022-11-20T08:11:39;2.72;;;2.17;;
9208;SDS011;4639;48.862;9.188;2022-11-20T08:14:23;2.83;;;2.08;;
9208;SDS011;4639;48.862;9.188;2022-11-20T08:16:49;2.40;;;2.08;;
9208;SDS011;4639;48.862;9.188;2022-11-20T08:19:15;2.55;;;2.00;;
9208;SDS011;4639;48.862;9.188;2022-11-20T08:21:43;2.30;;;2.10;;
9208;SDS011;4639;48.862;9.188;2022-11-20T08:24:09;2.40;;;1.90;;
9208;SDS011;4639;48.862;9.188;2022-11-20T08:26:35;2.28;;;1.95;;
9208;SDS011;4639;48.862;9.188;2022-11-20T08:29:02;2.40;;;1.90;;
9208;SDS011;4639;48.862;9.188;2022-11-20T08:31:28;3.08;;;2.20;;
9208;SDS011;4639;48.862;9.188;2022-11-20T08:33:54;1.98;;;1.80;;
9208;SDS011;4639;48.862;9.188;2022-11-20T08:36:21;3.50;;;2.00;;
9208;SDS011;4639;48.862;9.188;2022-11-20T08:38:48;2.85;;;1.70;;
9208;SDS011;4639;48.862;9.188;2022-11-20T08:41:18;1.70;;;1.48;;
9208;SDS011;4639;48.862;9.188;2022-11-20T08:43:56;1.70;;;1.60;;
9208;SDS011;4639;48.862;9.188;2022-11-20T08:46:27;1.98;;;1.50;;
9208;SDS011;4639;48.862;9.188;2022-11-20T08:48:58;2.38;;;1.58;;
9208;SDS011;4639;48.862;9.188;2022-11-20T08:51:23;1.20;;;1.10;;
9208;SDS011;4639;48.862;9.188;2022-11-20T08:53:49;3.55;;;1.50;;
9208;SDS011;4639;48.862;9.188;2022-11-20T08:56:14;2.05;;;1.30;;
9208;SDS011;4639;48.862;9.188;2022-11-20T08:58:40;2.63;;;1.20;;
9208;SDS011;4639;48.862;9.188;2022-11-20T09:01:06;1.17;;;1.10;;
9208;SDS011;4639;48.862;9.188;2022-11-20T09:03:32;2.95;;;1.02;;
9208;SDS011;4639;48.862;9.188;2022-11-20T09:06:01;1.33;;;1.10;;
9208;SDS011;4639;48.862;9.188;2022-11-20T09:08:29;4.20;;;1.30;;
9208;SDS011;4639;48.862;9.188;2022-11-20T09:10:55;2.50;;;1.42;;
9208;SDS011;4639;48.862;9.188;2022-11-20T09:13:22;1.15;;;0.98;;
9208;SDS011;4639;48.862;9.188;2022-11-20T09:15:52;2.05;;;1.15;;
9208;SDS011;4639;48.862;9.188;2022-11-20T09:18:26;1.25;;;1.10;;
9208;SDS011;4639;48.862;9.188;2022-11-20T09:20:55;1.48;;;1.10;;
9208;SDS011;4639;48.862;9.188;2022-11-20T09:23:22;1.40;;;1.05;;
9208;SDS011;4639;48.862;9.188;2022-11-20T09:25:48;1.13;;;1.02;;
9208;SDS011;4639;48.862;9.188;2022-11-20T09:28:13;0.90;;;0.88;;
9208;SDS011;4639;48.862;9.188;2022-11-20T09:30:39;2.10;;;1.10;;
9208;SDS011;4639;48.862;9.188;2022-11-20T09:33:05;1.08;;;1.00;;
9208;SDS011;4639;48.862;9.188;2022-11-20T09:35:31;1.30;;;1.20;;
9208;SDS011;4639;48.862;9.188;2022-11-20T09:37:58;1.45;;;1.30;;
9208;SDS011;4639;48.862;9.188;2022-11-20T09:40:26;1.88;;;1.52;;
9208;SDS011;4639;48.862;9.188;2022-11-20T09:48:48;2.17;;;1.70;;
9208;SDS011;4639;48.862;9.188;2022-11-20T09:54:13;2.08;;;1.58;;
9208;SDS011;4639;48.862;9.188;2022-11-20T09:56:53;1.45;;;1.33;;
9208;SDS011;4639;48.862;9.188;2022-11-20T09:59:29;1.85;;;1.48;;
9208;SDS011;4639;48.862;9.188;2022-11-20T10:07:53;1.30;;;1.20;;
9208;SDS011;4639;48.862;9.188;2022-11-20T10:10:46;1.40;;;1.30;;
9208;SDS011;4639;48.862;9.188;2022-11-20T10:13:35;1.88;;;1.50;;
9208;SDS011;4639;48.862;9.188;2022-11-20T10:16:20;1.85;;;1.20;;
9208;SDS011;4639;48.862;9.188;2022-11-20T10:19:27;1.20;;;1.13;;
9208;SDS011;4639;48.862;9.188;2022-11-20T10:24:51;1.52;;;1.30;;
9208;SDS011;4639;48.862;9.188;2022-11-20T10:27:32;1.30;;;1.20;;
9208;SDS011;4639;48.862;9.188;2022-11-20T10:30:25;1.50;;;1.40;;
9208;SDS011;4639;48.862;9.188;2022-11-20T10:32:54;2.47;;;1.50;;
9208;SDS011;4639;48.862;9.188;2022-11-20T10:35:44;2.08;;;1.60;;
9208;SDS011;4639;48.862;9.188;2022-11-20T10:38:26;1.23;;;1.13;;
9208;SDS011;4639;48.862;9.188;2022-11-20T10:41:03;1.30;;;1.20;;
9208;SDS011;4639;48.862;9.188;2022-11-20T10:43:51;2.58;;;1.27;;
9208;SDS011;4639;48.862;9.188;2022-11-20T10:46:33;1.30;;;1.20;;
9208;SDS011;4639;48.862;9.188;2022-11-20T10:49:15;2.30;;;1.20;;
9208;SDS011;4639;48.862;9.188;2022-11-20T10:51:53;1.52;;;1.23;;
9208;SDS011;4639;48.862;9.188;2022-11-20T10:54:58;2.30;;;1.52;;
9208;SDS011;4639;48.862;9.188;2022-11-20T10:57:53;3.25;;;1.77;;
9208;SDS011;4639;48.862;9.188;2022-11-20T11:00:25;1.80;;;1.70;;
9208;SDS011;4639;48.862;9.188;2022-11-20T11:02:51;2.65;;;1.58;;
9208;SDS011;4639;48.862;9.188;2022-11-20T11:05:31;2.47;;;1.50;;
9208;SDS011;4639;48.862;9.188;2022-11-20T11:08:15;1.48;;;1.38;;
9208;SDS011;4639;48.862;9.188;2022-11-20T11:15:47;3.53;;;1.95;;
9208;SDS011;4639;48.862;9.188;2022-11-20T11:18:22;3.17;;;1.73;;
9208;SDS011;4639;48.862;9.188;2022-11-20T11:20:51;2.38;;;1.80;;
9208;SDS011;4639;48.862;9.188;2022-11-20T11:23:28;2.78;;;1.90;;
9208;SDS011;4639;48.862;9.188;2022-11-20T11:25:58;3.38;;;1.70;;
9208;SDS011;4639;48.862;9.188;2022-11-20T11:28:25;2.10;;;1.90;;
9208;SDS011;4639;48.862;9.188;2022-11-20T11:30:52;2.50;;;1.83;;
9208;SDS011;4639;48.862;9.188;2022-11-20T11:33:20;2.03;;;1.80;;
9208;SDS011;4639;48.862;9.188;2022-11-20T11:35:49;1.70;;;1.60;;
9208;SDS011;4639;48.862;9.188;2022-11-20T11:38:23;3.38;;;2.30;;
9208;SDS011;4639;48.862;9.188;2022-11-20T11:40:55;2.08;;;1.77;;
9208;SDS011;4639;48.862;9.188;2022-11-20T11:43:23;2.10;;;1.90;;
9208;SDS011;4639;48.862;9.188;2022-11-20T11:48:54;2.95;;;2.10;;
9208;SDS011;4639;48.862;9.188;2022-11-20T11:51:31;2.13;;;1.70;;
9208;SDS011;4639;48.862;9.188;2022-11-20T11:54:02;4.40;;;1.90;;
9208;SDS011;4639;48.862;9.188;2022-11-20T11:56:38;2.30;;;1.40;;
9208;SDS011;4639;48.862;9.188;2022-11-20T11:59:04;3.53;;;1.80;;
9208;SDS011;4639;48.862;9.188;2022-11-20T12:01:36;5.35;;;2.10;;
9208;SDS011;4639;48.862;9.188;2022-11-20T12:04:17;3.70;;;1.58;;
9208;SDS011;4639;48.862;9.188;2022-11-20T12:06:51;4.20;;;1.60;;
9208;SDS011;4639;48.862;9.188;2022-11-20T12:09:26;2.92;;;1.52;;
9208;SDS011;4639;48.862;9.188;2022-11-20T12:12:04;2.30;;;1.33;;
9208;SDS011;4639;48.862;9.188;2022-11-20T12:14:52;3.63;;;1.35;;
9208;SDS011;4639;48.862;9.188;2022-11-20T12:17:20;5.40;;;1.48;;
9208;SDS011;4639;48.862;9.188;2022-11-20T12:19:46;2.13;;;1.60;;
9208;SDS011;4639;48.862;9.188;2022-11-20T12:22:27;4.55;;;1.52;;
9208;SDS011;4639;48.862;9.188;2022-11-20T12:25:10;3.20;;;1.30;;
9208;SDS011;4639;48.862;9.188;2022-11-20T12:30:34;2.25;;;1.63;;
9208;SDS011;4639;48.862;9.188;2022-11-20T12:38:57;2.35;;;1.33;;
9208;SDS011;4639;48.862;9.188;2022-11-20T12:58:05;2.72;;;1.20;;
9208;SDS011;4639;48.862;9.188;2022-11-20T13:00:56;3.38;;;1.27;;
9208;SDS011;4639;48.862;9.188;2022-11-20T13:03:37;2.10;;;1.13;;
9208;SDS011;4639;48.862;9.188;2022-11-20T13:06:16;1.70;;;1.00;;
9208;SDS011;4639;48.862;9.188;2022-11-20T13:08:44;2.30;;;1.10;;
9208;SDS011;4639;48.862;9.188;2022-11-20T13:11:19;3.50;;;1.30;;
9208;SDS011;4639;48.862;9.188;2022-11-20T13:16:35;1.95;;;1.17;;
9208;SDS011;4639;48.862;9.188;2022-11-20T13:19:02;3.15;;;1.40;;
9208;SDS011;4639;48.862;9.188;2022-11-20T13:21:36;2.08;;;1.20;;
9208;SDS011;4639;48.862;9.188;2022-11-20T13:24:18;1.73;;;1.02;;
9208;SDS011;4639;48.862;9.188;2022-11-20T13:26:48;2.78;;;1.40;;
9208;SDS011;4639;48.862;9.188;2022-11-20T13:29:24;1.70;;;1.40;;
9208;SDS011;4639;48.862;9.188;2022-11-20T13:31:50;2.25;;;1.48;;
9208;SDS011;4639;48.862;9.188;2022-11-20T13:34:25;1.58;;;1.15;;
9208;SDS011;4639;48.862;9.188;2022-11-20T13:36:53;5.60;;;1.05;;
9208;SDS011;4639;48.862;9.188;2022-11-20T13:39:27;4.30;;;1.08;;
9208;SDS011;4639;48.862;9.188;2022-11-20T13:41:58;2.58;;;0.90;;
9208;SDS011;4639;48.862;9.188;2022-11-20T13:44:43;4.28;;;1.90;;
9208;SDS011;4639;48.862;9.188;2022-11-20T13:47:30;4.28;;;1.35;;
9208;SDS011;4639;48.862;9.188;2022-11-20T13:49:57;1.60;;;1.20;;
9208;SDS011;4639;48.862;9.188;2022-11-20T14:01:05;3.50;;;1.23;;
9208;SDS011;4639;48.862;9.188;2022-11-20T14:03:35;2.30;;;1.00;;
9208;SDS011;4639;48.862;9.188;2022-11-20T14:06:02;2.75;;;1.40;;
9208;SDS011;4639;48.862;9.188;2022-11-20T14:08:37;2.47;;;1.25;;
9208;SDS011;4639;48.862;9.188;2022-11-20T14:16:30;2.80;;;1.10;;
9208;SDS011;4639;48.862;9.188;2022-11-20T14:19:08;3.10;;;1.25;;
9208;SDS011;4639;48.862;9.188;2022-11-20T14:21:45;1.92;;;1.20;;
9208;SDS011;4639;48.862;9.188;2022-11-20T14:24:20;2.55;;;1.30;;
9208;SDS011;4639;48.862;9.188;2022-11-20T14:26:47;4.32;;;1.30;;
9208;SDS011;4639;48.862;9.188;2022-11-20T14:29:13;1.65;;;1.17;;
9208;SDS011;4639;48.862;9.188;2022-11-20T14:31:42;1.63;;;1.08;;
9208;SDS011;4639;48.862;9.188;2022-11-20T14:34:15;1.33;;;1.10;;
9208;SDS011;4639;48.862;9.188;2022-11-20T14:36:44;1.98;;;1.45;;
9208;SDS011;4639;48.862;9.188;2022-11-20T14:39:11;1.58;;;0.98;;
9208;SDS011;4639;48.862;9.188;2022-11-20T14:41:50;4.20;;;1.30;;
9208;SDS011;4639;48.862;9.188;2022-11-20T14:44:17;2.42;;;1.40;;
9208;SDS011;4639;48.862;9.188;2022-11-20T14:46:45;2.17;;;1.40;;
9208;SDS011;4639;48.862;9.188;2022-11-20T14:49:11;1.98;;;1.13;;
9208;SDS011;4639;48.862;9.188;2022-11-20T14:51:38;2.08;;;1.52;;
9208;SDS011;4639;48.862;9.188;2022-11-20T14:54:08;2.90;;;1.38;;
9208;SDS011;4639;48.862;9.188;2022-11-20T14:56:53;3.30;;;1.35;;
9208;SDS011;4639;48.862;9.188;2022-11-20T14:59:42;2.45;;;1.55;;
9208;SDS011;4639;48.862;9.188;2022-11-20T15:02:11;3.60;;;1.25;;
9208;SDS011;4639;48.862;9.188;2022-11-20T15:04:44;2.65;;;1.70;;
9208;SDS011;4639;48.862;9.188;2022-11-20T15:07:23;2.38;;;1.38;;
9208;SDS011;4639;48.862;9.188;2022-11-20T15:10:00;4.40;;;1.48;;
9208;SDS011;4639;48.862;9.188;2022-11-20T15:12:31;3.67;;;2.05;;
9208;SDS011;4639;48.862;9.188;2022-11-20T15:14:58;3.40;;;1.67;;
9208;SDS011;4639;48.862;9.188;2022-11-20T15:17:25;3.33;;;1.77;;
9208;SDS011;4639;48.862;9.188;2022-11-20T15:19:51;2.20;;;1.77;;
9208;SDS011;4639;48.862;9.188;2022-11-20T15:22:17;2.80;;;1.92;;
9208;SDS011;4639;48.862;9.188;2022-11-20T15:24:43;5.30;;;2.42;;
9208;SDS011;4639;48.862;9.188;2022-11-20T15:27:09;4.35;;;2.80;;
9208;SDS011;4639;48.862;9.188;2022-11-20T15:29:35;4.07;;;1.92;;
9208;SDS011;4639;48.862;9.188;2022-11-20T15:32:01;2.17;;;1.70;;
9208;SDS011;4639;48.862;9.188;2022-11-20T15:34:27;2.33;;;1.60;;
9208;SDS011;4639;48.862;9.188;2022-11-20T15:36:53;3.22;;;2.05;;
9208;SDS011;4639;48.862;9.188;2022-11-20T15:39:19;4.85;;;2.03;;
9208;SDS011;4639;48.862;9.188;2022-11-20T15:41:45;3.20;;;1.92;;
9208;SDS011;4639;48.862;9.188;2022-11-20T15:44:11;4.22;;;1.88;;
9208;SDS011;4639;48.862;9.188;2022-11-20T15:46:37;5.15;;;2.22;;
9208;SDS011;4639;48.862;9.188;2022-11-20T15:49:10;3.47;;;2.63;;
9208;SDS011;4639;48.862;9.188;2022-11-20T15:51:41;3.70;;;2.53;;
9208;SDS011;4639;48.862;9.188;2022-11-20T15:56:38;3.83;;;2.38;;
9208;SDS011;4639;48.862;9.188;2022-11-20T15:59:03;6.90;;;3.47;;
9208;SDS011;4639;48.862;9.188;2022-11-20T16:01:29;7.03;;;4.93;;
9208;SDS011;4639;48.862;9.188;2022-11-20T16:03:55;19.13;;;9.30;;
9208;SDS011;4639;48.862;9.188;2022-11-20T16:06:21;18.33;;;7.90;;
9208;SDS011;4639;48.862;9.188;2022-11-20T16:08:46;15.88;;;10.15;;
9208;SDS011;4639;48.862;9.188;2022-11-20T16:11:12;8.00;;;4.95;;
9208;SDS011;4639;48.862;9.188;2022-11-20T16:13:40;6.88;;;4.35;;
9208;SDS011;4639;48.862;9.188;2022-11-20T16:16:34;5.90;;;3.95;;
9208;SDS011;4639;48.862;9.188;2022-11-20T16:19:01;4.95;;;3.22;;
9208;SDS011;4639;48.862;9.188;2022-11-20T16:21:27;5.38;;;4.43;;
9208;SDS011;4639;48.862;9.188;2022-11-20T16:23:59;5.00;;;4.50;;
9208;SDS011;4639;48.862;9.188;2022-11-20T16:26:26;7.43;;;3.17;;
9208;SDS011;4639;48.862;9.188;2022-11-20T16:28:52;9.85;;;8.23;;
9208;SDS011;4639;48.862;9.188;2022-11-20T16:31:19;6.18;;;3.60;;
9208;SDS011;4639;48.862;9.188;2022-11-20T16:33:49;3.65;;;2.90;;
9208;SDS011;4639;48.862;9.188;2022-11-20T16:36:16;4.90;;;3.35;;